Terminal Aerodrome Forecast
Issued by NWS

Home | Current Version | Previous Version | Text Only | Print | Product List | Glossary On
Versions: 1 2 3 4 5 6 7 8 9 10 11 12 13
507
FTUS46 KPDT 030520
TAFALW
TAF
KALW 030520Z 0306/0406 11008KT P6SM SKC
     FM032000 20007KT P6SM FEW120 SCT250
     FM032300 09009KT P6SM SCT120 BKN200
     FM040200 11010KT P6SM BKN120=

USA.gov is the U.S. government's official web portal to all federal, state and local government web resources and services.